createdAt,value
2023-04-12T00:03:21.864Z,6.38
2023-04-12T00:08:33.873Z,6.38
2023-04-12T00:13:38.812Z,6.32
2023-04-12T00:18:45.343Z,6.25
2023-04-12T00:23:49.779Z,6.12
2023-04-12T00:28:54.114Z,6.00
2023-04-12T00:33:58.751Z,5.90
2023-04-12T00:39:03.260Z,5.83
2023-04-12T00:44:07.790Z,5.78
2023-04-12T00:57:44.776Z,5.76
2023-04-12T01:02:53.365Z,5.76
2023-04-12T01:08:12.468Z,5.81
2023-04-12T01:13:30.913Z,5.81
2023-04-12T01:18:42.669Z,5.82
2023-04-12T01:24:05.310Z,5.81
2023-04-12T01:29:16.783Z,5.78
2023-04-12T01:34:26.730Z,5.75
2023-04-12T01:39:36.076Z,5.75
2023-04-12T01:44:43.631Z,5.72
2023-04-12T01:50:01.135Z,5.67
2023-04-12T01:55:11.846Z,5.63
2023-04-12T02:00:21.620Z,5.63
2023-04-12T02:05:30.509Z,5.61
2023-04-12T02:10:40.510Z,5.59
2023-04-12T02:15:49.348Z,5.57
2023-04-12T02:20:57.275Z,5.59
2023-04-12T02:26:05.087Z,5.59
2023-04-12T02:31:12.422Z,5.58
2023-04-12T02:36:19.909Z,5.58
2023-04-12T02:41:27.889Z,5.60
2023-04-12T02:46:35.818Z,5.58
2023-04-12T02:51:43.324Z,5.54
2023-04-12T02:56:50.851Z,5.53
2023-04-12T03:01:58.533Z,5.52
2023-04-12T03:07:06.137Z,5.51
2023-04-12T03:12:13.964Z,5.49
2023-04-12T03:17:21.667Z,5.44
2023-04-12T03:22:29.495Z,5.40
2023-04-12T03:27:36.773Z,5.40
2023-04-12T03:32:44.502Z,5.36
2023-04-12T03:37:51.927Z,5.35
2023-04-12T03:43:01.796Z,5.38
2023-04-12T03:48:12.285Z,5.38
2023-04-12T03:53:20.250Z,5.37
2023-04-12T03:58:27.710Z,5.37
2023-04-12T04:03:36.016Z,5.36
2023-04-12T04:08:45.113Z,5.36
2023-04-12T04:13:52.784Z,5.39
2023-04-12T04:19:00.300Z,5.38
2023-04-12T04:24:11.534Z,5.34
2023-04-12T04:29:18.863Z,5.33
2023-04-12T04:34:28.623Z,5.35
2023-04-12T04:39:36.595Z,5.37
2023-04-12T04:44:44.301Z,5.35
2023-04-12T04:49:51.946Z,5.32
2023-04-12T04:54:59.595Z,5.30
2023-04-12T05:00:11.783Z,5.30
2023-04-12T05:05:23.320Z,5.31
2023-04-12T05:10:31.759Z,5.30
2023-04-12T05:15:41.680Z,5.28
2023-04-12T05:20:49.925Z,5.26
2023-04-12T05:25:57.340Z,5.28
2023-04-12T05:31:05.064Z,5.32
2023-04-12T05:36:13.342Z,5.33
2023-04-12T05:41:20.909Z,5.33
2023-04-12T05:46:28.695Z,5.36
2023-04-12T05:51:41.279Z,5.38
2023-04-12T05:56:49.102Z,5.42
2023-04-12T06:01:57.189Z,5.43
2023-04-12T06:07:06.186Z,5.42
2023-04-12T06:12:14.874Z,5.41
2023-04-12T06:17:22.644Z,5.45
2023-04-12T06:22:32.100Z,5.47
2023-04-12T06:27:39.527Z,5.52
2023-04-12T06:32:49.472Z,5.55
2023-04-12T06:37:56.703Z,5.60
2023-04-12T06:43:03.878Z,5.66
2023-04-12T06:53:48.885Z,5.74
2023-04-12T06:58:54.486Z,5.69
2023-04-12T07:04:01.735Z,5.69
2023-04-12T07:09:09.353Z,5.67
2023-04-12T07:14:17.023Z,5.71
2023-04-12T07:19:24.471Z,5.77
2023-04-12T07:24:31.634Z,5.83
2023-04-12T07:29:43.610Z,5.91
2023-04-12T07:34:50.999Z,5.92
2023-04-12T07:39:58.375Z,5.91
2023-04-12T07:45:06.672Z,5.92
2023-04-12T07:50:14.452Z,5.98
2023-04-12T07:55:21.916Z,6.04
2023-04-12T08:00:32.853Z,6.13
2023-04-12T08:05:41.072Z,6.18
2023-04-12T08:10:48.694Z,6.22
2023-04-12T08:15:56.080Z,6.29
2023-04-12T08:21:03.808Z,6.33
2023-04-12T08:26:12.651Z,6.35
2023-04-12T08:31:20.156Z,6.38
2023-04-12T08:36:27.442Z,6.46
2023-04-12T08:41:37.043Z,6.65
2023-04-12T08:46:45.971Z,6.90
2023-04-12T08:51:55.083Z,7.18
2023-04-12T08:57:05.490Z,7.38
2023-04-12T09:04:52.758Z,7.60
2023-04-12T09:09:59.072Z,7.71
2023-04-12T09:15:13.110Z,7.87
2023-04-12T09:20:26.528Z,8.13
2023-04-12T09:25:44.295Z,8.36
2023-04-12T09:30:51.294Z,8.47
2023-04-12T09:36:00.117Z,8.49
2023-04-12T09:41:20.464Z,8.48
2023-04-12T09:46:26.830Z,8.39
2023-04-12T09:51:33.021Z,8.35
2023-04-12T09:56:39.468Z,8.36
2023-04-12T10:01:44.342Z,8.47
2023-04-12T10:06:48.807Z,8.55
2023-04-12T10:11:53.305Z,8.60
2023-04-12T10:16:58.634Z,8.68
2023-04-12T10:22:02.515Z,8.80
2023-04-12T10:27:06.616Z,8.94
2023-04-12T10:32:21.788Z,9.01
2023-04-12T10:38:00.874Z,9.13
2023-04-12T10:43:26.835Z,9.28
2023-04-12T10:48:35.595Z,9.37
2023-04-12T10:53:39.657Z,9.42
2023-04-12T10:58:59.029Z,9.46
2023-04-12T11:04:15.292Z,9.50
2023-04-12T11:09:25.011Z,9.46
2023-04-12T11:14:36.659Z,9.40
2023-04-12T11:19:42.159Z,9.34
2023-04-12T11:24:48.017Z,9.32
2023-04-12T11:29:55.004Z,9.34
2023-04-12T11:34:58.935Z,9.36
2023-04-12T11:40:05.518Z,9.43
2023-04-12T11:45:16.991Z,9.46
2023-04-12T11:54:42.725Z,9.56
2023-04-12T11:59:51.639Z,9.58
2023-04-12T12:04:59.677Z,9.64
2023-04-12T12:10:09.453Z,9.67
2023-04-12T12:15:19.887Z,9.81
2023-04-12T12:20:29.501Z,9.90
2023-04-12T12:25:37.955Z,9.97
2023-04-12T12:30:45.231Z,10.04
2023-04-12T12:35:59.324Z,10.16
2023-04-12T12:41:20.347Z,10.29
2023-04-12T12:46:37.331Z,10.34
2023-04-12T12:51:55.647Z,10.43
2023-04-12T12:57:03.763Z,10.51
2023-04-12T13:02:11.781Z,10.55
2023-04-12T13:07:19.519Z,10.62
2023-04-12T13:12:26.854Z,10.66
2023-04-12T13:17:34.031Z,10.67
2023-04-12T13:22:41.426Z,10.68
2023-04-12T13:27:49.186Z,10.68
2023-04-12T13:32:56.667Z,10.65
2023-04-12T13:38:04.362Z,10.63
2023-04-12T13:43:11.884Z,10.59
2023-04-12T13:48:19.847Z,10.60
2023-04-12T13:53:27.586Z,10.59
2023-04-12T13:58:35.025Z,10.57
2023-04-12T14:03:42.436Z,10.55
2023-04-12T14:08:49.811Z,10.54
2023-04-12T14:13:57.248Z,10.49
2023-04-12T14:19:04.762Z,10.44
2023-04-12T14:24:12.816Z,10.41
2023-04-12T14:29:20.682Z,10.37
2023-04-12T14:34:28.330Z,10.34
2023-04-12T14:39:36.397Z,10.32
2023-04-12T14:44:44.102Z,10.32
2023-04-12T14:49:51.396Z,10.29
2023-04-12T14:54:59.296Z,10.25
2023-04-12T15:00:13.764Z,10.26
2023-04-12T15:05:21.399Z,10.26
2023-04-12T15:10:30.638Z,10.26
2023-04-12T15:15:38.300Z,10.27
2023-04-12T15:20:45.894Z,10.32
2023-04-12T15:25:57.705Z,10.42
2023-04-12T15:31:05.542Z,10.49
2023-04-12T15:36:17.988Z,10.50
2023-04-12T15:41:27.848Z,10.50
2023-04-12T15:46:35.654Z,10.49
2023-04-12T15:51:43.304Z,10.44
2023-04-12T15:56:50.983Z,10.40
2023-04-12T16:01:58.926Z,10.38
2023-04-12T16:07:06.658Z,10.35
2023-04-12T16:12:14.375Z,10.31
2023-04-12T16:17:21.925Z,10.27
2023-04-12T16:22:29.442Z,10.25
2023-04-12T16:27:37.502Z,10.21
2023-04-12T16:32:46.735Z,10.16
2023-04-12T16:37:54.067Z,10.13
2023-04-12T16:43:01.594Z,10.07
2023-04-12T16:48:09.654Z,10.02
2023-04-12T16:53:17.674Z,9.96
2023-04-12T16:58:25.559Z,9.87
2023-04-12T17:03:32.765Z,9.76
2023-04-12T17:08:39.921Z,9.66
2023-04-12T17:13:47.032Z,9.56
2023-04-12T17:18:54.579Z,9.47
2023-04-12T17:24:02.067Z,9.37
2023-04-12T17:29:09.468Z,9.31
2023-04-12T17:34:16.894Z,9.26
2023-04-12T17:39:24.301Z,9.18
2023-04-12T17:44:32.733Z,9.10
2023-04-12T17:54:53.075Z,8.99
2023-04-12T18:00:00.735Z,8.90
2023-04-12T18:05:09.667Z,8.81
2023-04-12T18:10:21.387Z,8.71
2023-04-12T18:15:29.185Z,8.61
2023-04-12T18:20:36.617Z,8.50
2023-04-12T18:25:45.710Z,8.36
2023-04-12T18:30:53.973Z,8.24
2023-04-12T18:36:04.136Z,8.15
2023-04-12T18:41:15.443Z,8.06
2023-04-12T18:46:23.418Z,7.96
2023-04-12T18:51:31.537Z,7.86
2023-04-12T18:56:39.176Z,7.75
2023-04-12T19:01:46.707Z,7.62
2023-04-12T19:06:54.548Z,7.52
2023-04-12T19:12:02.080Z,7.42
2023-04-12T19:17:09.646Z,7.30
2023-04-12T19:22:17.403Z,7.17
2023-04-12T19:27:25.400Z,7.11
2023-04-12T19:32:33.477Z,7.06
2023-04-12T19:37:41.581Z,6.98
2023-04-12T19:42:48.776Z,6.84
2023-04-12T19:47:56.520Z,6.65
2023-04-12T19:53:04.020Z,6.45
2023-04-12T19:58:11.483Z,6.31
2023-04-12T20:03:19.316Z,6.20
2023-04-12T20:08:28.824Z,6.10
2023-04-12T20:13:36.666Z,5.99
2023-04-12T20:18:44.356Z,5.92
2023-04-12T20:23:52.412Z,5.81
2023-04-12T20:29:00.421Z,5.71
2023-04-12T20:34:08.053Z,5.62
2023-04-12T20:39:15.461Z,5.54
2023-04-12T20:44:23.396Z,5.51
2023-04-12T20:49:31.545Z,5.39
2023-04-12T20:54:39.199Z,5.17
2023-04-12T20:59:46.586Z,4.98
2023-04-12T21:04:54.026Z,4.84
2023-04-12T21:10:03.174Z,4.79
2023-04-12T21:15:13.250Z,4.79
2023-04-12T21:20:21.998Z,4.78
2023-04-12T21:25:29.348Z,4.78
2023-04-12T21:30:37.357Z,4.79
2023-04-12T21:35:45.386Z,4.77
2023-04-12T21:40:52.731Z,4.77
2023-04-12T21:46:00.077Z,4.78
2023-04-12T21:54:37.733Z,4.83
2023-04-12T21:59:46.102Z,4.76
2023-04-12T22:04:53.530Z,4.59
2023-04-12T22:10:00.106Z,4.45
2023-04-12T22:15:09.249Z,4.33
2023-04-12T22:20:16.569Z,4.10
2023-04-12T22:25:24.183Z,3.85
2023-04-12T22:30:32.003Z,3.63
2023-04-12T22:35:39.411Z,3.54
2023-04-12T22:40:47.880Z,3.55
2023-04-12T22:45:55.412Z,3.53
2023-04-12T22:51:02.856Z,3.49
2023-04-12T22:56:11.401Z,3.44
2023-04-12T23:01:19.218Z,3.25
2023-04-12T23:06:30.085Z,3.09
2023-04-12T23:11:39.898Z,2.96
2023-04-12T23:16:48.163Z,3.02
2023-04-12T23:21:55.768Z,3.01
2023-04-12T23:27:03.324Z,2.93
2023-04-12T23:32:12.496Z,2.95
2023-04-12T23:37:20.081Z,3.00
2023-04-12T23:42:27.647Z,3.08
2023-04-12T23:47:35.186Z,3.12
2023-04-12T23:52:42.816Z,3.15
2023-04-12T23:57:50.523Z,2.95
